sensor_id;sensor_type;location;lat;lon;timestamp;temperature;humidity
12303;DHT22;6214;48.012;7.862;2022-09-16T00:00:34;16.40;99.90
12303;DHT22;6214;48.012;7.862;2022-09-16T00:03:01;16.40;99.90
12303;DHT22;6214;48.012;7.862;2022-09-16T00:05:29;16.30;99.90
12303;DHT22;6214;48.012;7.862;2022-09-16T00:07:55;16.30;99.90
12303;DHT22;6214;48.012;7.862;2022-09-16T00:10:23;16.30;99.90
12303;DHT22;6214;48.012;7.862;2022-09-16T00:12:50;16.20;99.90
12303;DHT22;6214;48.012;7.862;2022-09-16T00:15:17;16.40;99.90
12303;DHT22;6214;48.012;7.862;2022-09-16T00:17:44;16.40;99.90
12303;DHT22;6214;48.012;7.862;2022-09-16T00:20:11;16.30;99.90
12303;DHT22;6214;48.012;7.862;2022-09-16T00:22:38;16.30;99.90
12303;DHT22;6214;48.012;7.862;2022-09-16T00:25:05;16.40;99.90
12303;DHT22;6214;48.012;7.862;2022-09-16T00:27:32;16.30;99.90
12303;DHT22;6214;48.012;7.862;2022-09-16T00:29:59;16.20;99.90
12303;DHT22;6214;48.012;7.862;2022-09-16T00:32:26;16.20;99.90
12303;DHT22;6214;48.012;7.862;2022-09-16T00:34:53;16.10;99.90
12303;DHT22;6214;48.012;7.862;2022-09-16T00:37:20;16.10;99.90
12303;DHT22;6214;48.012;7.862;2022-09-16T00:39:47;16.00;99.90
12303;DHT22;6214;48.012;7.862;2022-09-16T00:42:16;16.00;99.90
12303;DHT22;6214;48.012;7.862;2022-09-16T00:45:12;16.00;99.90
12303;DHT22;6214;48.012;7.862;2022-09-16T00:47:44;16.00;99.90
12303;DHT22;6214;48.012;7.862;2022-09-16T00:50:15;16.00;99.90
12303;DHT22;6214;48.012;7.862;2022-09-16T00:52:44;16.20;99.90
12303;DHT22;6214;48.012;7.862;2022-09-16T00:55:17;16.30;99.90
12303;DHT22;6214;48.012;7.862;2022-09-16T00:57:45;16.30;99.90
12303;DHT22;6214;48.012;7.862;2022-09-16T01:00:13;16.40;99.90
12303;DHT22;6214;48.012;7.862;2022-09-16T01:02:41;16.50;99.90
12303;DHT22;6214;48.012;7.862;2022-09-16T01:05:15;16.50;99.90
12303;DHT22;6214;48.012;7.862;2022-09-16T01:07:50;16.50;99.90
12303;DHT22;6214;48.012;7.862;2022-09-16T01:10:21;16.40;99.90
12303;DHT22;6214;48.012;7.862;2022-09-16T01:13:11;16.40;99.90
12303;DHT22;6214;48.012;7.862;2022-09-16T01:18:48;16.20;99.90
12303;DHT22;6214;48.012;7.862;2022-09-16T01:32:27;16.30;99.90
12303;DHT22;6214;48.012;7.862;2022-09-16T01:38:09;16.50;99.90
12303;DHT22;6214;48.012;7.862;2022-09-16T01:43:20;16.60;99.90
12303;DHT22;6214;48.012;7.862;2022-09-16T01:46:04;16.50;99.90
12303;DHT22;6214;48.012;7.862;2022-09-16T01:51:25;16.40;99.90
12303;DHT22;6214;48.012;7.862;2022-09-16T01:54:09;16.40;99.90
12303;DHT22;6214;48.012;7.862;2022-09-16T01:56:45;16.40;99.90
12303;DHT22;6214;48.012;7.862;2022-09-16T01:59:21;16.50;99.90
12303;DHT22;6214;48.012;7.862;2022-09-16T02:04:28;16.60;99.90
12303;DHT22;6214;48.012;7.862;2022-09-16T02:06:56;16.70;99.90
12303;DHT22;6214;48.012;7.862;2022-09-16T02:09:29;16.80;99.90
12303;DHT22;6214;48.012;7.862;2022-09-16T02:12:01;16.80;99.90
12303;DHT22;6214;48.012;7.862;2022-09-16T02:14:34;16.80;99.90
12303;DHT22;6214;48.012;7.862;2022-09-16T02:17:06;16.80;99.90
12303;DHT22;6214;48.012;7.862;2022-09-16T02:19:56;16.70;99.90
12303;DHT22;6214;48.012;7.862;2022-09-16T02:22:28;16.60;99.90
12303;DHT22;6214;48.012;7.862;2022-09-16T02:24:58;16.60;99.90
12303;DHT22;6214;48.012;7.862;2022-09-16T02:27:26;16.70;99.90
12303;DHT22;6214;48.012;7.862;2022-09-16T02:30:05;16.70;99.90
12303;DHT22;6214;48.012;7.862;2022-09-16T02:32:37;16.60;99.90
12303;DHT22;6214;48.012;7.862;2022-09-16T02:35:09;16.70;99.90
12303;DHT22;6214;48.012;7.862;2022-09-16T02:37:49;16.70;99.90
12303;DHT22;6214;48.012;7.862;2022-09-16T02:40:20;16.70;99.90
12303;DHT22;6214;48.012;7.862;2022-09-16T02:42:49;16.70;99.90
12303;DHT22;6214;48.012;7.862;2022-09-16T02:45:18;16.70;99.90
12303;DHT22;6214;48.012;7.862;2022-09-16T02:53:47;16.80;99.90
12303;DHT22;6214;48.012;7.862;2022-09-16T02:56:36;16.90;99.90
12303;DHT22;6214;48.012;7.862;2022-09-16T02:59:06;16.90;99.90
12303;DHT22;6214;48.012;7.862;2022-09-16T03:01:42;16.90;99.90
12303;DHT22;6214;48.012;7.862;2022-09-16T03:04:11;16.90;99.90
12303;DHT22;6214;48.012;7.862;2022-09-16T03:06:40;16.90;99.90
12303;DHT22;6214;48.012;7.862;2022-09-16T03:09:10;16.90;99.90
12303;DHT22;6214;48.012;7.862;2022-09-16T03:25:51;16.90;99.90
12303;DHT22;6214;48.012;7.862;2022-09-16T03:31:06;16.80;99.90
12303;DHT22;6214;48.012;7.862;2022-09-16T03:33:47;17.00;99.90
12303;DHT22;6214;48.012;7.862;2022-09-16T03:36:27;17.00;99.90
12303;DHT22;6214;48.012;7.862;2022-09-16T03:38:59;17.10;99.90
12303;DHT22;6214;48.012;7.862;2022-09-16T03:41:31;17.20;99.90
12303;DHT22;6214;48.012;7.862;2022-09-16T03:44:00;17.20;99.90
12303;DHT22;6214;48.012;7.862;2022-09-16T03:46:30;17.20;99.90
12303;DHT22;6214;48.012;7.862;2022-09-16T03:48:58;17.30;99.90
12303;DHT22;6214;48.012;7.862;2022-09-16T03:51:25;17.40;99.90
12303;DHT22;6214;48.012;7.862;2022-09-16T03:53:53;17.20;99.90
12303;DHT22;6214;48.012;7.862;2022-09-16T03:56:22;17.30;99.90
12303;DHT22;6214;48.012;7.862;2022-09-16T03:58:50;17.20;99.90
12303;DHT22;6214;48.012;7.862;2022-09-16T04:01:17;17.20;99.90
12303;DHT22;6214;48.012;7.862;2022-09-16T04:03:44;17.20;99.90
12303;DHT22;6214;48.012;7.862;2022-09-16T04:06:11;17.30;99.90
12303;DHT22;6214;48.012;7.862;2022-09-16T04:08:38;17.20;99.90
12303;DHT22;6214;48.012;7.862;2022-09-16T04:11:06;17.20;99.90
12303;DHT22;6214;48.012;7.862;2022-09-16T04:13:33;17.30;99.90
12303;DHT22;6214;48.012;7.862;2022-09-16T04:16:04;17.40;99.90
12303;DHT22;6214;48.012;7.862;2022-09-16T04:18:32;17.40;99.90
12303;DHT22;6214;48.012;7.862;2022-09-16T04:21:01;17.40;99.90
12303;DHT22;6214;48.012;7.862;2022-09-16T04:23:29;17.40;99.90
12303;DHT22;6214;48.012;7.862;2022-09-16T04:26:01;17.40;99.90
12303;DHT22;6214;48.012;7.862;2022-09-16T04:28:29;17.40;99.90
12303;DHT22;6214;48.012;7.862;2022-09-16T04:31:04;17.40;99.90
12303;DHT22;6214;48.012;7.862;2022-09-16T04:33:34;17.30;99.90
12303;DHT22;6214;48.012;7.862;2022-09-16T04:36:15;17.30;99.90
12303;DHT22;6214;48.012;7.862;2022-09-16T04:38:44;17.30;99.90
12303;DHT22;6214;48.012;7.862;2022-09-16T04:41:23;17.20;99.90
12303;DHT22;6214;48.012;7.862;2022-09-16T04:43:51;17.20;99.90
12303;DHT22;6214;48.012;7.862;2022-09-16T04:46:19;17.20;99.90
12303;DHT22;6214;48.012;7.862;2022-09-16T04:48:50;17.20;99.90
12303;DHT22;6214;48.012;7.862;2022-09-16T04:51:19;17.20;99.90
12303;DHT22;6214;48.012;7.862;2022-09-16T04:53:46;17.30;99.90
12303;DHT22;6214;48.012;7.862;2022-09-16T04:56:14;17.20;99.90
12303;DHT22;6214;48.012;7.862;2022-09-16T04:58:45;17.30;99.90
12303;DHT22;6214;48.012;7.862;2022-09-16T05:01:15;17.30;99.90
12303;DHT22;6214;48.012;7.862;2022-09-16T05:03:45;17.20;99.90
12303;DHT22;6214;48.012;7.862;2022-09-16T05:06:19;17.20;99.90
12303;DHT22;6214;48.012;7.862;2022-09-16T05:08:47;17.30;99.90
12303;DHT22;6214;48.012;7.862;2022-09-16T05:11:22;17.30;99.90
12303;DHT22;6214;48.012;7.862;2022-09-16T05:13:49;17.20;99.90
12303;DHT22;6214;48.012;7.862;2022-09-16T05:16:19;17.20;99.90
12303;DHT22;6214;48.012;7.862;2022-09-16T05:18:48;17.10;99.90
12303;DHT22;6214;48.012;7.862;2022-09-16T05:21:17;17.00;99.90
12303;DHT22;6214;48.012;7.862;2022-09-16T05:23:45;17.00;99.90
12303;DHT22;6214;48.012;7.862;2022-09-16T05:26:25;17.00;99.90
12303;DHT22;6214;48.012;7.862;2022-09-16T05:28:52;17.10;99.90
12303;DHT22;6214;48.012;7.862;2022-09-16T05:31:24;17.10;99.90
12303;DHT22;6214;48.012;7.862;2022-09-16T05:33:59;17.10;99.90
12303;DHT22;6214;48.012;7.862;2022-09-16T05:36:30;17.10;99.90
12303;DHT22;6214;48.012;7.862;2022-09-16T05:38:58;17.10;99.90
12303;DHT22;6214;48.012;7.862;2022-09-16T05:41:45;17.20;99.90
12303;DHT22;6214;48.012;7.862;2022-09-16T05:44:13;17.10;99.90
12303;DHT22;6214;48.012;7.862;2022-09-16T05:46:40;18.20;99.90
12303;DHT22;6214;48.012;7.862;2022-09-16T05:49:08;17.20;99.90
12303;DHT22;6214;48.012;7.862;2022-09-16T05:51:37;17.20;99.90
12303;DHT22;6214;48.012;7.862;2022-09-16T05:54:04;17.20;99.90
12303;DHT22;6214;48.012;7.862;2022-09-16T05:56:31;17.30;99.90
12303;DHT22;6214;48.012;7.862;2022-09-16T05:58:59;17.30;99.90
12303;DHT22;6214;48.012;7.862;2022-09-16T06:01:29;17.40;99.90
12303;DHT22;6214;48.012;7.862;2022-09-16T06:03:56;17.40;99.90
12303;DHT22;6214;48.012;7.862;2022-09-16T06:08:58;17.60;99.90
12303;DHT22;6214;48.012;7.862;2022-09-16T06:11:26;17.60;99.90
12303;DHT22;6214;48.012;7.862;2022-09-16T06:13:56;17.60;99.90
12303;DHT22;6214;48.012;7.862;2022-09-16T06:16:24;17.60;99.90
12303;DHT22;6214;48.012;7.862;2022-09-16T06:18:54;17.60;99.90
12303;DHT22;6214;48.012;7.862;2022-09-16T06:21:22;17.60;99.90
12303;DHT22;6214;48.012;7.862;2022-09-16T06:23:49;17.50;99.90
12303;DHT22;6214;48.012;7.862;2022-09-16T06:26:19;17.60;99.90
12303;DHT22;6214;48.012;7.862;2022-09-16T06:28:47;17.50;99.90
12303;DHT22;6214;48.012;7.862;2022-09-16T06:31:25;17.50;99.90
12303;DHT22;6214;48.012;7.862;2022-09-16T06:33:53;17.50;99.90
12303;DHT22;6214;48.012;7.862;2022-09-16T06:36:30;17.50;99.90
12303;DHT22;6214;48.012;7.862;2022-09-16T06:38:57;17.50;99.90
12303;DHT22;6214;48.012;7.862;2022-09-16T06:41:24;17.40;99.90
12303;DHT22;6214;48.012;7.862;2022-09-16T06:43:51;17.40;99.90
12303;DHT22;6214;48.012;7.862;2022-09-16T06:46:27;17.40;99.90
12303;DHT22;6214;48.012;7.862;2022-09-16T06:48:56;17.50;99.90
12303;DHT22;6214;48.012;7.862;2022-09-16T06:51:30;17.50;99.90
12303;DHT22;6214;48.012;7.862;2022-09-16T06:54:05;17.50;99.90
12303;DHT22;6214;48.012;7.862;2022-09-16T06:56:33;17.40;99.90
12303;DHT22;6214;48.012;7.862;2022-09-16T06:59:02;17.50;99.90
12303;DHT22;6214;48.012;7.862;2022-09-16T07:01:30;17.40;99.90
12303;DHT22;6214;48.012;7.862;2022-09-16T07:04:00;17.40;99.90
12303;DHT22;6214;48.012;7.862;2022-09-16T07:06:28;17.60;99.90
12303;DHT22;6214;48.012;7.862;2022-09-16T07:09:15;17.50;99.90
12303;DHT22;6214;48.012;7.862;2022-09-16T07:11:42;17.70;99.90
12303;DHT22;6214;48.012;7.862;2022-09-16T07:14:09;17.70;99.90
12303;DHT22;6214;48.012;7.862;2022-09-16T07:16:36;17.70;99.90
12303;DHT22;6214;48.012;7.862;2022-09-16T07:19:03;17.60;99.90
12303;DHT22;6214;48.012;7.862;2022-09-16T07:21:31;17.50;99.90
12303;DHT22;6214;48.012;7.862;2022-09-16T07:24:00;17.50;99.90
12303;DHT22;6214;48.012;7.862;2022-09-16T07:26:29;17.40;99.90
12303;DHT22;6214;48.012;7.862;2022-09-16T07:28:59;17.20;99.90
12303;DHT22;6214;48.012;7.862;2022-09-16T07:31:29;17.00;99.90
12303;DHT22;6214;48.012;7.862;2022-09-16T07:33:57;16.70;99.90
12303;DHT22;6214;48.012;7.862;2022-09-16T07:36:35;16.60;99.90
12303;DHT22;6214;48.012;7.862;2022-09-16T07:39:03;16.40;99.90
12303;DHT22;6214;48.012;7.862;2022-09-16T07:41:39;16.40;99.90
12303;DHT22;6214;48.012;7.862;2022-09-16T07:44:08;16.30;99.90
12303;DHT22;6214;48.012;7.862;2022-09-16T07:46:36;16.10;99.90
12303;DHT22;6214;48.012;7.862;2022-09-16T07:49:04;16.00;99.90
12303;DHT22;6214;48.012;7.862;2022-09-16T07:51:32;16.00;99.90
12303;DHT22;6214;48.012;7.862;2022-09-16T07:54:01;16.00;99.90
12303;DHT22;6214;48.012;7.862;2022-09-16T07:56:32;15.90;99.90
12303;DHT22;6214;48.012;7.862;2022-09-16T07:59:04;15.90;99.90
12303;DHT22;6214;48.012;7.862;2022-09-16T08:01:31;16.00;99.90
12303;DHT22;6214;48.012;7.862;2022-09-16T08:04:00;15.90;99.90
12303;DHT22;6214;48.012;7.862;2022-09-16T08:06:29;15.90;99.90
12303;DHT22;6214;48.012;7.862;2022-09-16T08:08:58;15.90;99.90
12303;DHT22;6214;48.012;7.862;2022-09-16T08:11:45;15.80;99.90
12303;DHT22;6214;48.012;7.862;2022-09-16T08:14:12;15.90;99.90
12303;DHT22;6214;48.012;7.862;2022-09-16T08:16:39;16.00;99.90
12303;DHT22;6214;48.012;7.862;2022-09-16T08:19:07;15.90;99.90
12303;DHT22;6214;48.012;7.862;2022-09-16T08:21:34;15.90;99.90
12303;DHT22;6214;48.012;7.862;2022-09-16T08:24:01;15.90;99.90
12303;DHT22;6214;48.012;7.862;2022-09-16T08:26:28;16.10;99.90
12303;DHT22;6214;48.012;7.862;2022-09-16T08:28:55;16.20;99.90
12303;DHT22;6214;48.012;7.862;2022-09-16T08:31:35;16.30;99.90
12303;DHT22;6214;48.012;7.862;2022-09-16T08:34:02;16.30;99.90
12303;DHT22;6214;48.012;7.862;2022-09-16T08:36:29;16.30;99.90
12303;DHT22;6214;48.012;7.862;2022-09-16T08:38:58;16.30;99.90
12303;DHT22;6214;48.012;7.862;2022-09-16T08:42:03;16.10;99.90
12303;DHT22;6214;48.012;7.862;2022-09-16T08:44:45;16.10;99.90
12303;DHT22;6214;48.012;7.862;2022-09-16T08:47:44;16.30;99.90
12303;DHT22;6214;48.012;7.862;2022-09-16T08:50:18;16.40;99.90
12303;DHT22;6214;48.012;7.862;2022-09-16T08:52:49;16.40;99.90
12303;DHT22;6214;48.012;7.862;2022-09-16T08:55:25;16.40;99.90
12303;DHT22;6214;48.012;7.862;2022-09-16T08:58:20;16.50;99.90
12303;DHT22;6214;48.012;7.862;2022-09-16T09:00:53;16.50;99.90
12303;DHT22;6214;48.012;7.862;2022-09-16T09:03:35;16.50;99.90
12303;DHT22;6214;48.012;7.862;2022-09-16T09:18:44;16.80;99.90
12303;DHT22;6214;48.012;7.862;2022-09-16T09:40:52;17.00;99.90
12303;DHT22;6214;48.012;7.862;2022-09-16T09:49:17;17.00;99.90
12303;DHT22;6214;48.012;7.862;2022-09-16T09:51:50;17.10;99.90
12303;DHT22;6214;48.012;7.862;2022-09-16T09:54:33;17.20;99.90
12303;DHT22;6214;48.012;7.862;2022-09-16T10:02:16;16.90;99.90
12303;DHT22;6214;48.012;7.862;2022-09-16T10:04:44;16.90;99.90
12303;DHT22;6214;48.012;7.862;2022-09-16T10:07:14;16.90;99.90
12303;DHT22;6214;48.012;7.862;2022-09-16T10:09:57;16.90;99.90
12303;DHT22;6214;48.012;7.862;2022-09-16T10:12:29;17.00;99.90
12303;DHT22;6214;48.012;7.862;2022-09-16T10:14:57;16.80;99.90
12303;DHT22;6214;48.012;7.862;2022-09-16T10:17:27;16.80;99.90
12303;DHT22;6214;48.012;7.862;2022-09-16T10:19:59;16.80;99.90
12303;DHT22;6214;48.012;7.862;2022-09-16T10:22:28;17.00;99.90
12303;DHT22;6214;48.012;7.862;2022-09-16T10:24:58;17.40;99.90
12303;DHT22;6214;48.012;7.862;2022-09-16T10:27:34;17.70;99.90
12303;DHT22;6214;48.012;7.862;2022-09-16T10:30:22;17.70;99.90
12303;DHT22;6214;48.012;7.862;2022-09-16T10:33:05;17.70;99.90
12303;DHT22;6214;48.012;7.862;2022-09-16T10:35:38;17.80;99.90
12303;DHT22;6214;48.012;7.862;2022-09-16T10:40:56;18.00;99.90
12303;DHT22;6214;48.012;7.862;2022-09-16T10:43:28;18.20;99.90
12303;DHT22;6214;48.012;7.862;2022-09-16T10:45:56;18.40;99.90
12303;DHT22;6214;48.012;7.862;2022-09-16T10:48:27;18.40;99.90
12303;DHT22;6214;48.012;7.862;2022-09-16T10:51:00;18.30;99.90
12303;DHT22;6214;48.012;7.862;2022-09-16T10:53:38;18.30;99.90
12303;DHT22;6214;48.012;7.862;2022-09-16T10:56:33;18.30;99.90
12303;DHT22;6214;48.012;7.862;2022-09-16T10:59:08;18.00;99.90
12303;DHT22;6214;48.012;7.862;2022-09-16T11:01:43;17.80;99.90
12303;DHT22;6214;48.012;7.862;2022-09-16T11:04:40;17.80;99.90
12303;DHT22;6214;48.012;7.862;2022-09-16T11:10:17;17.70;99.90
12303;DHT22;6214;48.012;7.862;2022-09-16T11:13:16;17.60;99.90
12303;DHT22;6214;48.012;7.862;2022-09-16T11:15:57;17.50;99.90
12303;DHT22;6214;48.012;7.862;2022-09-16T11:21:59;17.60;99.90
12303;DHT22;6214;48.012;7.862;2022-09-16T11:57:27;17.40;99.90
12303;DHT22;6214;48.012;7.862;2022-09-16T12:05:26;17.40;99.90
12303;DHT22;6214;48.012;7.862;2022-09-16T12:13:15;17.60;99.90
12303;DHT22;6214;48.012;7.862;2022-09-16T12:15:55;17.50;99.90
12303;DHT22;6214;48.012;7.862;2022-09-16T12:18:36;17.60;99.90
12303;DHT22;6214;48.012;7.862;2022-09-16T12:21:06;17.70;99.90
12303;DHT22;6214;48.012;7.862;2022-09-16T12:23:39;17.90;99.90
12303;DHT22;6214;48.012;7.862;2022-09-16T12:26:31;17.90;99.90
12303;DHT22;6214;48.012;7.862;2022-09-16T12:29:18;17.70;99.90
12303;DHT22;6214;48.012;7.862;2022-09-16T12:32:06;17.70;99.90
12303;DHT22;6214;48.012;7.862;2022-09-16T12:34:51;17.70;99.90
12303;DHT22;6214;48.012;7.862;2022-09-16T12:37:30;17.60;99.90
12303;DHT22;6214;48.012;7.862;2022-09-16T12:40:00;17.60;99.90
12303;DHT22;6214;48.012;7.862;2022-09-16T12:53:54;17.60;99.90
12303;DHT22;6214;48.012;7.862;2022-09-16T13:02:21;17.50;99.90
12303;DHT22;6214;48.012;7.862;2022-09-16T13:04:52;17.40;99.90
12303;DHT22;6214;48.012;7.862;2022-09-16T13:07:26;17.40;99.90
12303;DHT22;6214;48.012;7.862;2022-09-16T13:10:15;17.30;99.90
12303;DHT22;6214;48.012;7.862;2022-09-16T13:12:54;17.30;99.90
12303;DHT22;6214;48.012;7.862;2022-09-16T13:15:28;17.20;99.90
12303;DHT22;6214;48.012;7.862;2022-09-16T13:20:46;17.10;99.90
12303;DHT22;6214;48.012;7.862;2022-09-16T13:23:18;17.10;99.90
12303;DHT22;6214;48.012;7.862;2022-09-16T13:26:07;17.20;99.90
12303;DHT22;6214;48.012;7.862;2022-09-16T13:28:36;17.20;99.90
12303;DHT22;6214;48.012;7.862;2022-09-16T13:33:48;17.30;99.90
12303;DHT22;6214;48.012;7.862;2022-09-16T13:36:29;17.30;99.90
12303;DHT22;6214;48.012;7.862;2022-09-16T13:39:04;17.30;99.90
12303;DHT22;6214;48.012;7.862;2022-09-16T13:44:27;17.10;99.90
12303;DHT22;6214;48.012;7.862;2022-09-16T13:47:17;17.10;99.90
12303;DHT22;6214;48.012;7.862;2022-09-16T13:49:53;17.10;99.90
12303;DHT22;6214;48.012;7.862;2022-09-16T13:52:34;17.20;99.90
12303;DHT22;6214;48.012;7.862;2022-09-16T13:55:04;17.10;99.90
12303;DHT22;6214;48.012;7.862;2022-09-16T13:58:35;17.20;99.90
12303;DHT22;6214;48.012;7.862;2022-09-16T14:01:17;17.30;99.90
12303;DHT22;6214;48.012;7.862;2022-09-16T14:04:10;17.30;99.90
12303;DHT22;6214;48.012;7.862;2022-09-16T14:14:42;17.40;99.90
12303;DHT22;6214;48.012;7.862;2022-09-16T14:17:21;17.50;99.90
12303;DHT22;6214;48.012;7.862;2022-09-16T14:19:52;17.50;99.90
12303;DHT22;6214;48.012;7.862;2022-09-16T14:22:21;17.60;99.90
12303;DHT22;6214;48.012;7.862;2022-09-16T14:24:52;17.50;99.90
12303;DHT22;6214;48.012;7.862;2022-09-16T14:27:39;17.50;99.90
12303;DHT22;6214;48.012;7.862;2022-09-16T14:30:14;17.60;99.90
12303;DHT22;6214;48.012;7.862;2022-09-16T14:32:43;17.60;99.90
12303;DHT22;6214;48.012;7.862;2022-09-16T14:35:22;17.60;99.90
12303;DHT22;6214;48.012;7.862;2022-09-16T14:37:56;17.60;99.90
12303;DHT22;6214;48.012;7.862;2022-09-16T14:40:25;17.60;99.90
12303;DHT22;6214;48.012;7.862;2022-09-16T14:43:07;17.60;99.90
12303;DHT22;6214;48.012;7.862;2022-09-16T14:45:44;17.60;99.90
12303;DHT22;6214;48.012;7.862;2022-09-16T14:48:13;17.70;99.90
12303;DHT22;6214;48.012;7.862;2022-09-16T14:50:46;17.60;99.90
12303;DHT22;6214;48.012;7.862;2022-09-16T14:53:31;17.60;99.90
12303;DHT22;6214;48.012;7.862;2022-09-16T14:56:03;17.60;99.90
12303;DHT22;6214;48.012;7.862;2022-09-16T14:58:32;17.50;99.90
12303;DHT22;6214;48.012;7.862;2022-09-16T15:01:09;17.40;99.90
12303;DHT22;6214;48.012;7.862;2022-09-16T15:06:26;17.20;99.90
12303;DHT22;6214;48.012;7.862;2022-09-16T15:09:01;17.20;99.90
12303;DHT22;6214;48.012;7.862;2022-09-16T15:11:32;17.20;99.90
12303;DHT22;6214;48.012;7.862;2022-09-16T15:14:17;17.30;99.90
12303;DHT22;6214;48.012;7.862;2022-09-16T15:16:58;17.30;99.90
12303;DHT22;6214;48.012;7.862;2022-09-16T15:19:33;17.40;99.90
12303;DHT22;6214;48.012;7.862;2022-09-16T15:22:01;17.50;99.90
12303;DHT22;6214;48.012;7.862;2022-09-16T15:24:31;17.50;99.90
12303;DHT22;6214;48.012;7.862;2022-09-16T15:27:00;17.50;99.90
12303;DHT22;6214;48.012;7.862;2022-09-16T15:29:31;17.50;99.90
12303;DHT22;6214;48.012;7.862;2022-09-16T15:32:30;17.50;99.90
12303;DHT22;6214;48.012;7.862;2022-09-16T15:35:27;17.50;99.90
12303;DHT22;6214;48.012;7.862;2022-09-16T15:37:56;17.50;99.90
12303;DHT22;6214;48.012;7.862;2022-09-16T15:43:24;17.50;99.90
12303;DHT22;6214;48.012;7.862;2022-09-16T15:46:01;17.50;99.90
12303;DHT22;6214;48.012;7.862;2022-09-16T15:48:34;17.30;99.90
12303;DHT22;6214;48.012;7.862;2022-09-16T15:51:08;17.20;99.90
12303;DHT22;6214;48.012;7.862;2022-09-16T15:53:44;17.20;99.90
12303;DHT22;6214;48.012;7.862;2022-09-16T15:58:48;17.10;99.90
12303;DHT22;6214;48.012;7.862;2022-09-16T16:04:00;17.10;99.90
12303;DHT22;6214;48.012;7.862;2022-09-16T16:12:03;17.20;99.90
12303;DHT22;6214;48.012;7.862;2022-09-16T16:14:31;17.10;99.90
12303;DHT22;6214;48.012;7.862;2022-09-16T16:19:41;17.00;99.90
12303;DHT22;6214;48.012;7.862;2022-09-16T16:22:09;17.00;99.90
12303;DHT22;6214;48.012;7.862;2022-09-16T16:24:37;16.90;99.90
12303;DHT22;6214;48.012;7.862;2022-09-16T16:27:05;16.80;99.90
12303;DHT22;6214;48.012;7.862;2022-09-16T16:29:32;16.90;99.90
12303;DHT22;6214;48.012;7.862;2022-09-16T16:32:04;16.90;99.90
12303;DHT22;6214;48.012;7.862;2022-09-16T16:34:37;16.90;99.90
12303;DHT22;6214;48.012;7.862;2022-09-16T16:37:05;17.00;99.90
12303;DHT22;6214;48.012;7.862;2022-09-16T16:39:33;17.00;99.90
12303;DHT22;6214;48.012;7.862;2022-09-16T16:42:01;16.90;99.90
12303;DHT22;6214;48.012;7.862;2022-09-16T16:44:31;16.90;99.90
12303;DHT22;6214;48.012;7.862;2022-09-16T16:46:58;16.90;99.90
12303;DHT22;6214;48.012;7.862;2022-09-16T16:49:25;16.80;99.90
12303;DHT22;6214;48.012;7.862;2022-09-16T16:51:53;16.80;99.90
12303;DHT22;6214;48.012;7.862;2022-09-16T16:54:24;16.70;99.90
12303;DHT22;6214;48.012;7.862;2022-09-16T16:56:52;16.70;99.90
12303;DHT22;6214;48.012;7.862;2022-09-16T16:59:20;16.60;99.90
12303;DHT22;6214;48.012;7.862;2022-09-16T17:01:50;16.70;99.90
12303;DHT22;6214;48.012;7.862;2022-09-16T17:04:18;16.70;99.90
12303;DHT22;6214;48.012;7.862;2022-09-16T17:06:45;16.60;99.90
12303;DHT22;6214;48.012;7.862;2022-09-16T17:09:13;16.70;99.90
12303;DHT22;6214;48.012;7.862;2022-09-16T17:11:53;16.70;99.90
12303;DHT22;6214;48.012;7.862;2022-09-16T17:14:22;16.70;99.90
12303;DHT22;6214;48.012;7.862;2022-09-16T17:16:50;16.70;99.90
12303;DHT22;6214;48.012;7.862;2022-09-16T17:19:18;16.70;99.90
12303;DHT22;6214;48.012;7.862;2022-09-16T17:21:45;16.70;99.90
12303;DHT22;6214;48.012;7.862;2022-09-16T17:24:13;16.70;99.90
12303;DHT22;6214;48.012;7.862;2022-09-16T17:26:40;16.60;99.90
12303;DHT22;6214;48.012;7.862;2022-09-16T17:29:07;16.60;99.90
12303;DHT22;6214;48.012;7.862;2022-09-16T17:31:42;16.60;99.90
12303;DHT22;6214;48.012;7.862;2022-09-16T17:34:11;16.40;99.90
12303;DHT22;6214;48.012;7.862;2022-09-16T17:36:41;16.40;99.90
12303;DHT22;6214;48.012;7.862;2022-09-16T17:39:16;16.40;99.90
12303;DHT22;6214;48.012;7.862;2022-09-16T17:41:45;16.50;99.90
12303;DHT22;6214;48.012;7.862;2022-09-16T17:44:15;16.50;99.90
12303;DHT22;6214;48.012;7.862;2022-09-16T17:46:43;16.50;99.90
12303;DHT22;6214;48.012;7.862;2022-09-16T17:49:18;16.40;99.90
12303;DHT22;6214;48.012;7.862;2022-09-16T17:51:47;16.40;99.90
12303;DHT22;6214;48.012;7.862;2022-09-16T17:54:14;16.40;99.90
12303;DHT22;6214;48.012;7.862;2022-09-16T17:56:42;16.40;99.90
12303;DHT22;6214;48.012;7.862;2022-09-16T17:59:10;16.50;99.90
12303;DHT22;6214;48.012;7.862;2022-09-16T18:01:37;16.40;99.90
12303;DHT22;6214;48.012;7.862;2022-09-16T18:04:04;16.30;99.90
12303;DHT22;6214;48.012;7.862;2022-09-16T18:06:34;16.40;99.90
12303;DHT22;6214;48.012;7.862;2022-09-16T18:09:05;16.40;99.90
12303;DHT22;6214;48.012;7.862;2022-09-16T18:11:35;16.10;99.90
12303;DHT22;6214;48.012;7.862;2022-09-16T18:14:04;15.80;99.90
12303;DHT22;6214;48.012;7.862;2022-09-16T18:16:32;15.90;99.90
12303;DHT22;6214;48.012;7.862;2022-09-16T18:19:00;15.90;99.90
12303;DHT22;6214;48.012;7.862;2022-09-16T18:21:28;15.90;99.90
12303;DHT22;6214;48.012;7.862;2022-09-16T18:23:57;16.00;99.90
12303;DHT22;6214;48.012;7.862;2022-09-16T18:26:25;16.00;99.90
12303;DHT22;6214;48.012;7.862;2022-09-16T18:28:53;16.00;99.90
12303;DHT22;6214;48.012;7.862;2022-09-16T18:31:40;16.00;99.90
12303;DHT22;6214;48.012;7.862;2022-09-16T18:34:08;16.00;99.90
12303;DHT22;6214;48.012;7.862;2022-09-16T18:36:35;16.10;99.90
12303;DHT22;6214;48.012;7.862;2022-09-16T18:39:06;16.10;99.90
12303;DHT22;6214;48.012;7.862;2022-09-16T18:41:36;16.10;99.90
12303;DHT22;6214;48.012;7.862;2022-09-16T18:44:05;16.10;99.90
12303;DHT22;6214;48.012;7.862;2022-09-16T18:46:35;16.10;99.90
12303;DHT22;6214;48.012;7.862;2022-09-16T18:49:02;16.10;99.90
12303;DHT22;6214;48.012;7.862;2022-09-16T18:51:35;16.10;99.90
12303;DHT22;6214;48.012;7.862;2022-09-16T18:54:15;16.00;99.90
12303;DHT22;6214;48.012;7.862;2022-09-16T18:56:44;16.00;99.90
12303;DHT22;6214;48.012;7.862;2022-09-16T18:59:17;16.10;99.90
12303;DHT22;6214;48.012;7.862;2022-09-16T19:01:50;15.90;99.90
12303;DHT22;6214;48.012;7.862;2022-09-16T19:04:20;16.00;99.90
12303;DHT22;6214;48.012;7.862;2022-09-16T19:06:50;15.80;99.90
12303;DHT22;6214;48.012;7.862;2022-09-16T19:09:19;15.90;99.90
12303;DHT22;6214;48.012;7.862;2022-09-16T19:11:47;15.80;99.90
12303;DHT22;6214;48.012;7.862;2022-09-16T19:14:15;15.80;99.90
12303;DHT22;6214;48.012;7.862;2022-09-16T19:16:43;15.90;99.90
12303;DHT22;6214;48.012;7.862;2022-09-16T19:19:13;15.70;99.90
12303;DHT22;6214;48.012;7.862;2022-09-16T19:21:41;15.70;99.90
12303;DHT22;6214;48.012;7.862;2022-09-16T19:24:17;15.70;99.90
12303;DHT22;6214;48.012;7.862;2022-09-16T19:26:45;15.50;99.90
12303;DHT22;6214;48.012;7.862;2022-09-16T19:29:14;15.60;99.90
12303;DHT22;6214;48.012;7.862;2022-09-16T19:31:43;15.60;99.90
12303;DHT22;6214;48.012;7.862;2022-09-16T19:34:12;15.60;99.90
12303;DHT22;6214;48.012;7.862;2022-09-16T19:36:39;15.50;99.90